Time;durP1;ratioP1;P1;durP2;ratioP2;P2;SDS_P1;SDS_P2;PMS_P1;PMS_P2;Temp;Humidity;BMP_temperature;BMP_pressure;BME280_temperature;BME280_humidity;BME280_pressure;Samples;Min_cycle;Max_cycle;Signal;HPM_P1;HPM_P2
2022/01/22 00:03:53;;;;;;;1.63;1.53;;;;;;;-0.25;100.00;97027.84;10374172;28;20750;-67
2022/01/22 00:08:53;;;;;;;2.03;1.83;;;;;;;-0.31;100.00;97019.63;10373098;28;20197;-67
2022/01/22 00:19:12;;;;;;;2.00;1.70;;;;;;;-0.19;100.00;97022.38;10373454;28;20228;-66
2022/01/22 00:24:13;;;;;;;1.60;1.50;;;;;;;-0.19;100.00;96998.38;10373572;28;20205;-67
2022/01/22 00:29:16;;;;;;;1.37;1.27;;;;;;;-0.20;100.00;97007.00;10371951;28;20252;-66
2022/01/22 00:34:16;;;;;;;1.47;1.27;;;;;;;-0.19;100.00;96999.19;10373056;28;20719;-65
2022/01/22 00:39:16;;;;;;;1.00;1.00;;;;;;;-0.23;100.00;96995.13;10372955;28;20225;-65
2022/01/22 00:44:17;;;;;;;1.17;1.10;;;;;;;-0.24;100.00;97001.19;10371180;28;20219;-64
2022/01/22 00:49:17;;;;;;;1.90;1.40;;;;;;;-0.20;100.00;97004.41;10372712;28;20231;-64
2022/01/22 00:54:17;;;;;;;1.10;0.97;;;;;;;-0.15;100.00;96991.31;10371892;28;20208;-63
2022/01/22 00:59:18;;;;;;;1.13;1.00;;;;;;;-0.20;100.00;97001.84;10371935;28;20217;-65
2022/01/22 01:04:18;;;;;;;1.17;1.10;;;;;;;-0.15;100.00;96989.56;10371874;28;20200;-65
2022/01/22 01:09:19;;;;;;;0.90;0.90;;;;;;;-0.13;100.00;96992.88;10371851;28;20667;-64
2022/01/22 01:14:37;;;;;;;1.20;1.10;;;;;;;-0.16;100.00;96990.47;10370115;28;20279;-64
2022/01/22 01:35:38;;;;;;;0.70;0.70;;;;;;;-0.09;100.00;96983.25;10369861;28;20213;-65
2022/01/22 01:40:42;;;;;;;1.00;0.90;;;;;;;-0.04;100.00;96984.66;10370533;28;20267;-65
2022/01/22 01:45:43;;;;;;;0.70;0.70;;;;;;;-0.01;100.00;96974.19;10369584;28;20579;-64
2022/01/22 01:50:44;;;;;;;0.70;0.70;;;;;;;0.07;100.00;96990.97;10370367;28;20227;-64
2022/01/22 01:56:01;;;;;;;0.93;0.70;;;;;;;0.08;100.00;96987.50;10369114;28;20291;-64
2022/01/22 02:01:06;;;;;;;0.67;0.67;;;;;;;0.08;100.00;96984.91;10354487;28;20633;-65
2022/01/22 02:06:10;;;;;;;0.80;0.80;;;;;;;0.08;100.00;96988.31;10369143;28;20220;-64
2022/01/22 02:11:13;;;;;;;0.70;0.70;;;;;;;0.07;100.00;96985.81;10368775;28;20977;-64
2022/01/22 02:27:29;;;;;;;0.90;0.90;;;;;;;0.21;100.00;96993.59;10367457;28;20652;-65
2022/01/22 02:32:53;;;;;;;1.23;1.13;;;;;;;0.18;100.00;96993.78;10371362;28;20212;-64
2022/01/22 02:37:59;;;;;;;1.07;1.03;;;;;;;0.26;100.00;96993.34;10376283;28;20216;-64
2022/01/22 02:43:00;;;;;;;0.90;0.90;;;;;;;0.23;100.00;96999.53;10375816;28;20213;-64
2022/01/22 02:48:01;;;;;;;0.90;0.90;;;;;;;0.15;100.00;97002.53;10376269;28;20205;-64
2022/01/22 02:53:07;;;;;;;1.03;0.70;;;;;;;0.16;100.00;97003.34;10375495;28;20209;-64
2022/01/22 02:58:07;;;;;;;0.60;0.60;;;;;;;0.20;100.00;97009.16;10375657;28;20234;-64
2022/01/22 03:03:08;;;;;;;0.70;0.70;;;;;;;0.29;100.00;97018.94;10376233;28;20578;-65
2022/01/22 03:08:10;;;;;;;0.90;0.90;;;;;;;0.31;100.00;97024.84;10375132;28;20204;-65
2022/01/22 03:13:58;;;;;;;0.80;0.80;;;;;;;0.38;100.00;97017.59;10375037;28;20327;-65
2022/01/22 03:18:43;;;;;;;0.90;0.90;;;;;;;0.38;100.00;97020.19;10374663;28;20315;-65
2022/01/22 03:29:32;;;;;;;1.00;1.00;;;;;;;0.38;100.00;97026.16;10314361;28;20453;-65
2022/01/22 03:34:41;;;;;;;0.87;0.77;;;;;;;0.45;100.00;97042.13;10358234;28;20324;-63
2022/01/22 03:39:41;;;;;;;0.67;0.67;;;;;;;0.58;100.00;97047.41;10373944;28;20218;-64
2022/01/22 03:44:42;;;;;;;0.70;0.70;;;;;;;0.59;100.00;97049.91;10372428;28;20610;-65
2022/01/22 03:49:42;;;;;;;0.50;0.50;;;;;;;0.59;100.00;97054.25;10373518;28;20236;-63
2022/01/22 03:54:46;;;;;;;0.60;0.60;;;;;;;0.57;100.00;97062.06;10373539;28;20290;-65
2022/01/22 03:59:53;;;;;;;0.70;0.70;;;;;;;0.54;100.00;97072.53;10373357;28;20216;-63
2022/01/22 04:05:02;;;;;;;0.60;0.60;;;;;;;0.48;100.00;97078.03;10374242;28;20287;-64
2022/01/22 04:10:06;;;;;;;0.50;0.50;;;;;;;0.57;100.00;97066.38;10376394;28;20271;-66
2022/01/22 04:15:08;;;;;;;0.70;0.70;;;;;;;0.58;100.00;97079.16;10375867;28;20267;-65
2022/01/22 04:25:32;;;;;;;1.47;1.37;;;;;;;0.61;100.00;97080.75;10369916;28;20189;-63
2022/01/22 04:30:33;;;;;;;2.53;2.10;;;;;;;0.69;100.00;97091.50;10368157;28;20225;-63
2022/01/22 04:35:33;;;;;;;2.83;2.33;;;;;;;0.68;100.00;97095.78;10368741;28;20224;-64
2022/01/22 04:40:34;;;;;;;2.83;2.43;;;;;;;0.75;100.00;97108.34;10368277;28;20213;-64
2022/01/22 04:55:57;;;;;;;2.30;1.63;;;;;;;0.42;100.00;97133.31;10366935;28;20227;-64
2022/01/22 05:00:57;;;;;;;1.30;1.20;;;;;;;0.31;100.00;97141.63;10366128;28;20216;-64
2022/01/22 05:06:28;;;;;;;1.97;1.77;;;;;;;0.33;100.00;97157.84;10371021;28;20200;-65
2022/01/22 05:11:48;;;;;;;4.87;3.13;;;;;;;0.41;100.00;97154.84;10371601;28;20603;-66
2022/01/22 05:16:51;;;;;;;3.20;2.63;;;;;;;0.45;100.00;97173.56;10370257;28;20221;-66
2022/01/22 05:21:54;;;;;;;3.50;2.60;;;;;;;0.40;100.00;97183.28;10370334;28;20236;-66
2022/01/22 05:37:45;;;;;;;6.20;3.43;;;;;;;0.03;100.00;97221.28;10370757;28;20232;-66
2022/01/22 05:42:46;;;;;;;4.63;3.00;;;;;;;-0.03;100.00;97223.25;10370959;28;20223;-66
2022/01/22 05:47:46;;;;;;;3.93;2.97;;;;;;;-0.03;100.00;97225.84;10370615;28;20189;-67
2022/01/22 05:52:55;;;;;;;5.87;3.13;;;;;;;-0.06;100.00;97236.31;10370827;28;20209;-67
2022/01/22 06:03:21;;;;;;;6.83;3.43;;;;;;;-0.18;100.00;97244.66;10369062;28;20209;-67
2022/01/22 06:08:22;;;;;;;4.67;3.53;;;;;;;-0.17;100.00;97256.59;10373869;28;20181;-67
2022/01/22 06:13:29;;;;;;;7.67;3.73;;;;;;;-0.14;100.00;97271.88;10377330;28;20264;-67
2022/01/22 06:18:31;;;;;;;8.57;3.60;;;;;;;-0.14;100.00;97268.50;10377258;28;20703;-67
2022/01/22 06:23:32;;;;;;;7.13;2.97;;;;;;;-0.20;100.00;97288.50;10376802;28;20208;-67
2022/01/22 06:28:34;;;;;;;5.43;3.77;;;;;;;-0.17;100.00;97294.38;10377044;28;20840;-66
2022/01/22 06:33:34;;;;;;;6.20;3.90;;;;;;;-0.19;100.00;97300.44;10376407;28;20707;-66
2022/01/22 06:38:35;;;;;;;5.83;3.97;;;;;;;-0.21;100.00;97306.59;10377658;28;20213;-66
2022/01/22 06:43:53;;;;;;;6.10;4.10;;;;;;;-0.11;100.00;97315.50;10376822;28;20223;-67
2022/01/22 06:49:01;;;;;;;6.07;3.73;;;;;;;-0.13;100.00;97314.75;10376230;28;20209;-66
2022/01/22 06:54:14;;;;;;;7.57;4.37;;;;;;;-0.15;100.00;97329.47;10375707;28;20717;-67
2022/01/22 06:59:14;;;;;;;8.47;4.40;;;;;;;-0.14;100.00;97340.59;10376706;28;20267;-67
2022/01/22 07:04:18;;;;;;;10.93;4.33;;;;;;;-0.11;100.00;97337.84;10375180;28;20644;-66
2022/01/22 07:09:44;;;;;;;9.17;4.80;;;;;;;-0.15;100.00;97346.63;10375163;28;20217;-66
2022/01/22 07:14:48;;;;;;;8.17;4.87;;;;;;;-0.14;100.00;97353.47;10374879;28;20224;-67
2022/01/22 07:19:52;;;;;;;9.87;5.30;;;;;;;-0.14;100.00;97364.59;10374729;28;20221;-66
2022/01/22 07:24:57;;;;;;;7.90;4.87;;;;;;;-0.12;100.00;97377.38;10374739;28;20622;-67
2022/01/22 07:29:58;;;;;;;10.17;4.70;;;;;;;-0.05;100.00;97377.00;10374217;28;20205;-67
2022/01/22 07:34:59;;;;;;;7.77;4.87;;;;;;;-0.06;100.00;97393.41;10374546;28;20219;-67
2022/01/22 07:40:00;;;;;;;8.10;4.80;;;;;;;-0.06;100.00;97388.25;10373908;28;20205;-67
2022/01/22 07:45:14;;;;;;;10.47;5.03;;;;;;;-0.02;100.00;97394.91;10374197;28;20273;-67
2022/01/22 07:50:18;;;;;;;7.87;5.20;;;;;;;-0.01;100.00;97398.31;10373666;28;20263;-67
2022/01/22 07:55:21;;;;;;;7.43;4.67;;;;;;;0.05;100.00;97408.34;10373575;28;20966;-67
2022/01/22 08:00:22;;;;;;;8.03;4.97;;;;;;;-0.01;100.00;97411.19;10373019;28;20214;-68
2022/01/22 08:05:23;;;;;;;5.43;3.73;;;;;;;0.14;100.00;97422.53;10373202;28;20198;-67
2022/01/22 08:10:41;;;;;;;6.77;4.60;;;;;;;0.21;100.00;97426.44;10374136;28;20249;-67
2022/01/22 08:15:42;;;;;;;6.57;4.10;;;;;;;0.19;100.00;97420.53;10373769;28;20224;-67
2022/01/22 08:20:42;;;;;;;6.27;3.93;;;;;;;0.13;100.00;97431.16;10373944;28;20208;-67
2022/01/22 08:26:10;;;;;;;8.20;5.17;;;;;;;0.17;100.00;97440.41;10372371;28;20217;-67
2022/01/22 08:32:04;;;;;;;9.03;4.87;;;;;;;0.16;100.00;97444.69;10371533;28;20796;-67
2022/01/22 08:37:05;;;;;;;6.30;4.60;;;;;;;0.08;100.00;97454.56;10372111;28;20220;-67
2022/01/22 08:42:06;;;;;;;6.53;4.03;;;;;;;0.23;100.00;97459.88;10371644;28;20582;-67
2022/01/22 08:47:07;;;;;;;4.53;3.50;;;;;;;0.40;100.00;97462.47;10371553;28;20209;-67
2022/01/22 08:52:13;;;;;;;4.80;4.00;;;;;;;0.58;100.00;97462.47;10371342;28;20217;-67
2022/01/22 08:57:14;;;;;;;5.83;3.67;;;;;;;0.57;100.00;97453.91;10371081;28;20228;-67
2022/01/22 09:02:29;;;;;;;8.20;5.40;;;;;;;0.56;100.00;97454.81;10370515;28;20217;-67
2022/01/22 09:07:52;;;;;;;7.23;3.40;;;;;;;0.45;100.00;97467.41;10370826;28;20182;-68
2022/01/22 09:13:02;;;;;;;6.33;3.93;;;;;;;0.45;100.00;97470.81;10368579;28;20339;-68
2022/01/22 09:18:10;;;;;;;5.53;3.10;;;;;;;0.25;100.00;97481.25;10371649;28;20225;-68
2022/01/22 09:23:11;;;;;;;9.33;3.63;;;;;;;0.14;100.00;97486.94;10370180;28;20201;-67
2022/01/22 09:28:13;;;;;;;6.97;3.80;;;;;;;-0.12;100.00;97501.00;10370062;28;20189;-67
2022/01/22 09:33:17;;;;;;;6.37;4.17;;;;;;;0.07;100.00;97506.16;10369638;28;20212;-68
2022/01/22 09:38:40;;;;;;;7.23;3.90;;;;;;;0.29;100.00;97506.81;10369668;28;20223;-67
2022/01/22 09:44:12;;;;;;;6.60;3.80;;;;;;;0.38;100.00;97522.72;10348166;28;20232;-67
2022/01/22 09:49:48;;;;;;;8.60;4.40;;;;;;;0.51;100.00;97524.66;10361001;28;20244;-67
2022/01/22 09:54:51;;;;;;;7.47;4.90;;;;;;;0.79;100.00;97535.38;10370614;28;20220;-67
2022/01/22 10:00:14;;;;;;;5.57;4.00;;;;;;;0.71;100.00;97538.31;10362592;28;20282;-68
2022/01/22 10:05:33;;;;;;;9.63;3.90;;;;;;;0.82;100.00;97536.03;10370607;28;20197;-67
2022/01/22 10:10:52;;;;;;;6.97;4.20;;;;;;;0.64;100.00;97531.78;10369866;28;20348;-67
2022/01/22 10:16:14;;;;;;;8.93;3.50;;;;;;;0.68;100.00;97543.63;10368760;28;20236;-67
2022/01/22 10:21:15;;;;;;;8.50;3.63;;;;;;;1.05;100.00;97541.81;10369911;28;20225;-68
2022/01/22 10:26:16;;;;;;;5.53;3.77;;;;;;;1.49;100.00;97545.63;10370197;28;20193;-68
2022/01/22 10:31:21;;;;;;;4.47;3.13;;;;;;;1.50;100.00;97536.97;10369758;28;20227;-67
2022/01/22 10:36:56;;;;;;;5.73;3.63;;;;;;;1.85;100.00;97542.03;10369570;28;20770;-67
2022/01/22 10:42:21;;;;;;;5.30;3.43;;;;;;;2.60;100.00;97547.41;10369418;28;20316;-68
2022/01/22 10:47:22;;;;;;;4.50;3.20;;;;;;;2.47;100.00;97547.28;10369759;28;20221;-68
2022/01/22 10:52:23;;;;;;;7.23;3.50;;;;;;;1.67;100.00;97555.00;10370647;28;20243;-68
2022/01/22 10:57:23;;;;;;;7.13;3.50;;;;;;;1.52;100.00;97566.97;10375752;28;20217;-68
2022/01/22 11:02:35;;;;;;;4.63;3.30;;;;;;;1.25;100.00;97564.03;10376281;28;20304;-67
2022/01/22 11:07:35;;;;;;;5.10;3.40;;;;;;;1.32;100.00;97580.06;10378821;28;20185;-68
2022/01/22 11:12:35;;;;;;;6.77;4.17;;;;;;;1.56;100.00;97570.22;10376191;28;20241;-67
2022/01/22 11:17:36;;;;;;;7.67;4.03;;;;;;;1.70;100.00;97579.81;10376159;28;20217;-66
2022/01/22 11:22:37;;;;;;;5.93;3.43;;;;;;;1.78;100.00;97575.09;10375935;28;20211;-67
2022/01/22 11:27:38;;;;;;;5.27;3.50;;;;;;;2.26;100.00;97575.16;10375049;28;20193;-67
2022/01/22 11:32:55;;;;;;;7.13;3.43;;;;;;;1.91;100.00;97573.53;10375451;28;20209;-67
2022/01/22 11:38:00;;;;;;;7.70;2.83;;;;;;;1.69;100.00;97573.00;10375392;28;20235;-67
2022/01/22 11:43:07;;;;;;;6.43;3.37;;;;;;;1.93;100.00;97587.22;10373678;28;20808;-66
2022/01/22 11:48:21;;;;;;;4.20;3.47;;;;;;;2.26;100.00;97572.56;10375209;28;20201;-67
2022/01/22 11:53:32;;;;;;;5.40;3.60;;;;;;;2.80;100.00;97572.16;10375350;28;20711;-66
2022/01/22 11:58:33;;;;;;;6.33;3.53;;;;;;;2.74;100.00;97572.50;10374572;28;20217;-67
2022/01/22 12:03:33;;;;;;;6.63;3.87;;;;;;;2.21;100.00;97579.75;10373083;28;20209;-67
2022/01/22 12:09:15;;;;;;;7.30;4.27;;;;;;;2.73;100.00;97573.44;10374617;28;20186;-66
2022/01/22 12:14:50;;;;;;;6.77;3.60;;;;;;;2.55;100.00;97570.13;10373623;28;20272;-66
2022/01/22 12:20:05;;;;;;;8.93;3.23;;;;;;;2.58;100.00;97569.97;10373806;28;20261;-66
2022/01/22 12:25:08;;;;;;;7.70;3.60;;;;;;;2.24;100.00;97572.66;10373871;28;20193;-66
2022/01/22 12:30:09;;;;;;;9.33;3.73;;;;;;;1.83;100.00;97577.44;10373372;28;20198;-66
2022/01/22 12:35:12;;;;;;;7.53;3.93;;;;;;;1.88;100.00;97573.69;10372983;28;20220;-66
2022/01/22 12:40:13;;;;;;;9.07;5.20;;;;;;;1.96;100.00;97574.13;10373175;28;20245;-66
2022/01/22 12:45:13;;;;;;;3.70;3.07;;;;;;;2.37;100.00;97575.38;10372716;28;20654;-66
2022/01/22 12:50:14;;;;;;;6.57;3.40;;;;;;;2.31;100.00;97576.56;10372747;28;20223;-66
2022/01/22 12:55:20;;;;;;;5.43;3.67;;;;;;;1.95;100.00;97574.22;10372210;28;20248;-67
2022/01/22 13:00:21;;;;;;;8.17;3.40;;;;;;;2.20;100.00;97580.66;10371725;28;20213;-66
2022/01/22 13:05:23;;;;;;;8.57;3.50;;;;;;;1.68;100.00;97582.47;10372162;28;20189;-67
2022/01/22 13:10:33;;;;;;;10.50;4.40;;;;;;;1.61;100.00;97591.47;10371805;28;20265;-66
2022/01/22 13:15:35;;;;;;;5.77;3.70;;;;;;;1.82;100.00;97592.09;10371333;28;20244;-66
2022/01/22 13:20:36;;;;;;;9.83;3.90;;;;;;;1.46;100.00;97603.41;10371123;28;20213;-66
2022/01/22 13:25:37;;;;;;;10.67;3.77;;;;;;;2.21;100.00;97603.00;10371218;28;20258;-66
2022/01/22 13:30:45;;;;;;;5.60;3.90;;;;;;;2.44;100.00;97592.25;10370876;28;20252;-66
2022/01/22 13:52:10;;;;;;;9.63;3.43;;;;;;;3.51;100.00;97588.81;10366533;28;20213;-65
2022/01/22 13:57:31;;;;;;;6.53;3.17;;;;;;;3.27;100.00;97606.63;10367784;28;20300;-66
2022/01/22 14:08:01;;;;;;;6.17;3.47;;;;;;;3.88;100.00;97605.56;10368448;28;20186;-67
2022/01/22 14:13:11;;;;;;;6.67;3.33;;;;;;;3.59;100.00;97606.50;10366643;28;20771;-67
2022/01/22 14:23:15;;;;;;;5.80;3.40;;;;;;;2.57;100.00;97623.44;10367410;28;20239;-66
2022/01/22 14:28:16;;;;;;;8.03;3.80;;;;;;;1.95;100.00;97621.56;10370776;28;20223;-65
2022/01/22 14:33:18;;;;;;;6.63;4.13;;;;;;;1.80;100.00;97629.28;10374437;28;20291;-66
2022/01/22 14:38:34;;;;;;;9.83;3.80;;;;;;;1.66;100.00;97635.97;10376469;28;20216;-66
2022/01/22 14:49:01;;;;;;;7.60;4.03;;;;;;;0.84;100.00;97649.44;10373028;28;20660;-66
2022/01/22 14:54:01;;;;;;;7.33;4.63;;;;;;;0.77;100.00;97651.50;10375381;28;20221;-65
2022/01/22 14:59:01;;;;;;;6.33;4.13;;;;;;;0.90;100.00;97649.16;10375904;28;20216;-66
2022/01/22 15:04:02;;;;;;;12.23;5.00;;;;;;;0.68;100.00;97651.94;10374916;28;20202;-65
2022/01/22 15:09:05;;;;;;;9.10;5.37;;;;;;;0.62;100.00;97640.16;10372999;28;20248;-66
2022/01/22 15:14:06;;;;;;;11.90;5.63;;;;;;;0.49;100.00;97639.03;10372767;28;20273;-64
2022/01/22 15:19:13;;;;;;;10.30;5.63;;;;;;;0.45;100.00;97650.44;10374302;28;20304;-66
2022/01/22 15:24:14;;;;;;;11.73;6.27;;;;;;;0.41;100.00;97648.88;10375226;28;20248;-66
2022/01/22 15:29:22;;;;;;;11.37;5.67;;;;;;;0.34;100.00;97656.06;10375322;28;20726;-65
2022/01/22 15:39:30;;;;;;;11.33;6.00;;;;;;;0.25;100.00;97654.72;10375153;28;20283;-64
2022/01/22 15:44:32;;;;;;;11.43;5.60;;;;;;;0.27;100.00;97657.25;10374687;28;20268;-66
2022/01/22 15:49:32;;;;;;;13.53;6.57;;;;;;;0.18;100.00;97653.31;10374840;28;20197;-66
2022/01/22 15:54:32;;;;;;;12.37;6.47;;;;;;;0.13;100.00;97663.84;10374427;28;20200;-63
2022/01/22 15:59:33;;;;;;;16.87;8.07;;;;;;;0.00;100.00;97670.47;10374100;28;20276;-66
2022/01/22 16:04:34;;;;;;;16.37;8.63;;;;;;;-0.07;100.00;97675.03;10374047;28;20196;-66
2022/01/22 16:09:34;;;;;;;15.20;8.63;;;;;;;-0.12;100.00;97682.13;10373728;28;20246;-63
2022/01/22 16:14:35;;;;;;;12.13;7.83;;;;;;;0.09;100.00;97688.09;10373013;28;20229;-66
2022/01/22 16:19:37;;;;;;;13.23;7.77;;;;;;;0.21;100.00;97698.75;10373596;28;20200;-65
2022/01/22 16:24:38;;;;;;;17.77;12.20;;;;;;;0.13;100.00;97709.38;10373326;28;20201;-67
2022/01/22 16:29:38;;;;;;;14.87;8.07;;;;;;;0.21;100.00;97712.47;10373076;28;20690;-65
2022/01/22 16:34:41;;;;;;;11.43;6.90;;;;;;;0.28;100.00;97715.63;10373117;28;20196;-66
2022/01/22 16:39:42;;;;;;;13.00;6.73;;;;;;;0.21;100.00;97712.47;10372668;28;20198;-66
2022/01/22 16:45:03;;;;;;;49.30;17.30;;;;;;;0.25;100.00;97714.00;10372527;28;20200;-66
2022/01/22 16:55:39;;;;;;;18.63;8.93;;;;;;;0.55;100.00;97723.00;10371017;28;20749;-64
2022/01/22 17:00:45;;;;;;;22.90;9.93;;;;;;;0.65;100.00;97714.78;10372056;28;20217;-65
2022/01/22 17:05:46;;;;;;;9.17;6.43;;;;;;;0.53;100.00;97716.16;10369808;28;20203;-64
2022/01/22 17:15:50;;;;;;;9.83;6.00;;;;;;;0.55;100.00;97731.56;10409370;28;20590;-67
2022/01/22 17:20:50;;;;;;;15.20;10.23;;;;;;;0.52;100.00;97731.72;10412815;28;20195;-67
2022/01/22 17:25:51;;;;;;;11.43;6.57;;;;;;;0.68;100.00;97726.72;10412350;28;20199;-66
2022/01/22 17:30:51;;;;;;;10.93;6.20;;;;;;;0.61;100.00;97738.22;10412322;28;20200;-66
2022/01/22 17:35:52;;;;;;;10.97;6.10;;;;;;;0.64;100.00;97736.31;10412139;28;20227;-67
2022/01/22 17:41:07;;;;;;;10.20;5.20;;;;;;;0.70;100.00;97746.38;10411781;28;20601;-68
2022/01/22 17:46:08;;;;;;;9.63;5.60;;;;;;;0.83;100.00;97743.25;10410761;28;20653;-68
2022/01/22 17:51:08;;;;;;;10.77;5.37;;;;;;;0.80;100.00;97748.53;10411599;28;20212;-67
2022/01/22 17:56:08;;;;;;;11.40;5.60;;;;;;;0.77;100.00;97743.53;10411641;28;20630;-68
2022/01/22 18:01:11;;;;;;;8.53;4.87;;;;;;;0.82;100.00;97749.28;10410655;28;20258;-67
2022/01/22 18:06:11;;;;;;;10.97;5.17;;;;;;;0.79;100.00;97752.84;10410735;28;20180;-67
2022/01/22 18:11:13;;;;;;;10.10;6.57;;;;;;;0.77;100.00;97746.09;10411125;28;20322;-66
2022/01/22 18:16:14;;;;;;;12.70;6.53;;;;;;;0.74;100.00;97739.34;10411197;28;20282;-68
2022/01/22 18:21:14;;;;;;;10.23;6.33;;;;;;;0.74;100.00;97741.09;10411003;28;20627;-68
2022/01/22 18:26:14;;;;;;;14.43;7.53;;;;;;;0.73;100.00;97742.81;10410936;28;20556;-69
2022/01/22 18:31:15;;;;;;;11.87;7.67;;;;;;;0.81;100.00;97735.56;10410762;28;20655;-67
2022/01/22 18:36:16;;;;;;;13.97;7.77;;;;;;;0.88;100.00;97755.00;10410841;28;20223;-68
2022/01/22 18:41:17;;;;;;;13.13;7.63;;;;;;;0.81;100.00;97745.03;10410358;28;20215;-66
2022/01/22 18:46:17;;;;;;;13.70;8.37;;;;;;;0.94;100.00;97741.00;10410317;28;20195;-67
2022/01/22 18:51:17;;;;;;;15.37;8.63;;;;;;;0.83;100.00;97733.75;10410219;28;20222;-65
2022/01/22 18:56:18;;;;;;;20.23;9.80;;;;;;;0.80;100.00;97736.47;10410222;28;20228;-69
2022/01/22 19:01:18;;;;;;;24.23;12.33;;;;;;;0.65;100.00;97738.00;10410040;28;20216;-67
2022/01/22 19:06:18;;;;;;;14.23;8.70;;;;;;;0.96;100.00;97764.13;10409917;28;20196;-69
2022/01/22 19:11:19;;;;;;;23.47;9.50;;;;;;;0.81;100.00;97765.66;10409958;28;20233;-66
2022/01/22 19:16:19;;;;;;;17.60;9.73;;;;;;;1.05;100.00;97753.38;10414991;28;20793;-66
2022/01/22 19:21:25;;;;;;;17.33;9.57;;;;;;;1.09;100.00;97759.22;10416732;28;20694;-68
2022/01/22 19:26:40;;;;;;;15.37;8.53;;;;;;;1.02;100.00;97758.69;10416720;28;20195;-69
2022/01/22 19:31:40;;;;;;;15.27;8.50;;;;;;;0.69;100.00;97760.16;10416315;28;20220;-68
2022/01/22 19:36:43;;;;;;;13.90;8.70;;;;;;;0.82;100.00;97772.50;10416176;28;20255;-66
2022/01/22 19:41:44;;;;;;;14.40;7.90;;;;;;;0.77;100.00;97771.88;10415527;28;20575;-68
2022/01/22 19:46:45;;;;;;;11.90;6.57;;;;;;;0.71;100.00;97766.09;10416029;28;20188;-68
2022/01/22 19:51:46;;;;;;;16.00;7.83;;;;;;;0.58;100.00;97771.88;10414132;28;20230;-67
2022/01/22 19:56:46;;;;;;;12.03;6.30;;;;;;;0.56;100.00;97773.69;10415387;28;20254;-67
2022/01/22 20:01:47;;;;;;;9.83;5.27;;;;;;;0.57;100.00;97768.44;10414736;28;20249;-67
2022/01/22 20:06:47;;;;;;;4.97;3.50;;;;;;;0.49;100.00;97761.06;10414936;28;20183;-66
2022/01/22 20:11:47;;;;;;;9.20;3.80;;;;;;;0.32;100.00;97763.53;10414518;28;20854;-66
2022/01/22 20:16:49;;;;;;;6.00;3.37;;;;;;;0.24;100.00;97766.44;10414545;28;20223;-66
2022/01/22 20:21:49;;;;;;;6.53;4.07;;;;;;;0.24;100.00;97771.59;10414416;28;20221;-67
2022/01/22 20:26:50;;;;;;;8.67;4.67;;;;;;;0.55;100.00;97772.00;10413194;28;20234;-66
2022/01/22 20:31:50;;;;;;;8.70;5.33;;;;;;;0.33;100.00;97768.63;10413623;28;20245;-66
2022/01/22 20:36:51;;;;;;;9.00;5.27;;;;;;;0.45;100.00;97759.50;10407296;28;20625;-66
2022/01/22 20:41:51;;;;;;;10.40;4.97;;;;;;;0.33;100.00;97768.63;10412136;28;20564;-67
2022/01/22 20:46:58;;;;;;;10.87;5.10;;;;;;;0.35;100.00;97769.41;10400817;28;20211;-68
2022/01/22 20:52:00;;;;;;;9.87;5.53;;;;;;;0.34;100.00;97772.88;10386832;28;20205;-67
2022/01/22 20:57:04;;;;;;;14.80;6.43;;;;;;;0.15;100.00;97777.13;10410328;28;20262;-69
2022/01/22 21:02:06;;;;;;;8.00;5.33;;;;;;;0.11;100.00;97775.63;10411453;28;20211;-67
2022/01/22 21:07:06;;;;;;;12.70;6.80;;;;;;;0.05;100.00;97771.56;10411633;28;20272;-67
2022/01/22 21:12:06;;;;;;;15.47;7.27;;;;;;;-0.15;100.00;97782.69;10412179;28;20683;-67
2022/01/22 21:17:07;;;;;;;13.50;6.77;;;;;;;-0.14;100.00;97774.03;10411962;28;20689;-67
2022/01/22 21:22:07;;;;;;;14.70;7.77;;;;;;;-0.17;100.00;97774.16;10411786;28;20271;-67
2022/01/22 21:27:08;;;;;;;14.27;8.73;;;;;;;-0.13;100.00;97785.19;10411801;28;20192;-67
2022/01/22 21:32:08;;;;;;;24.87;10.57;;;;;;;-0.32;100.00;97791.09;10411536;28;20209;-68
2022/01/22 21:42:15;;;;;;;23.07;12.47;;;;;;;-0.26;100.00;97795.16;10410611;28;20706;-67
2022/01/22 21:47:15;;;;;;;22.67;12.23;;;;;;;-0.05;100.00;97796.00;10411190;28;20259;-67
2022/01/22 21:52:15;;;;;;;25.27;13.83;;;;;;;-0.21;100.00;97801.78;10410829;28;20297;-67
2022/01/22 21:57:17;;;;;;;19.90;11.07;;;;;;;-0.13;100.00;97793.75;10410953;28;20219;-67
2022/01/22 22:02:18;;;;;;;27.93;14.33;;;;;;;-0.26;100.00;97792.56;10410825;28;20270;-67
2022/01/22 22:07:18;;;;;;;24.53;11.63;;;;;;;-0.30;100.00;97797.03;10410933;28;20195;-66
2022/01/22 22:12:19;;;;;;;18.73;10.03;;;;;;;-0.26;100.00;97793.44;10411142;28;20343;-66
2022/01/22 22:17:19;;;;;;;19.37;11.23;;;;;;;-0.10;100.00;97796.19;10411100;28;20213;-67
2022/01/22 22:22:19;;;;;;;19.93;9.30;;;;;;;-0.18;100.00;97795.69;10411307;28;20216;-66
2022/01/22 22:27:20;;;;;;;22.37;11.53;;;;;;;-0.26;100.00;97797.72;10411054;28;20184;-66
2022/01/22 22:32:24;;;;;;;20.17;11.63;;;;;;;-0.20;100.00;97800.06;10411148;28;20212;-67
2022/01/22 22:37:25;;;;;;;20.50;11.10;;;;;;;-0.23;100.00;97795.03;10411350;28;20317;-66
2022/01/22 22:42:32;;;;;;;15.73;9.40;;;;;;;-0.02;100.00;97801.88;10410579;28;20665;-68
2022/01/22 22:47:32;;;;;;;18.50;10.43;;;;;;;-0.03;100.00;97810.50;10410680;28;20185;-66
2022/01/22 22:52:32;;;;;;;17.23;10.07;;;;;;;0.02;100.00;97809.50;10418360;28;20215;-64
2022/01/22 22:57:33;;;;;;;14.90;8.60;;;;;;;0.23;100.00;97805.16;10418313;28;20216;-65
2022/01/22 23:02:33;;;;;;;10.20;5.83;;;;;;;0.38;100.00;97803.66;10417807;28;20216;-66
2022/01/22 23:07:33;;;;;;;4.37;2.73;;;;;;;0.53;100.00;97805.59;10417827;28;20670;-66
2022/01/22 23:12:39;;;;;;;4.80;3.40;;;;;;;0.82;100.00;97799.13;10420831;22;20257;-65
2022/01/22 23:21:10;;;;;;;4.23;2.70;;;;;;;0.95;100.00;97796.84;10335870;28;20222;-65
2022/01/22 23:28:37;;;;;;;4.30;3.03;;;;;;;1.19;100.00;97812.94;10335934;28;20230;-65
2022/01/22 23:54:41;;;;;;;7.73;5.03;;;;;;;1.48;100.00;97813.31;10335083;28;20216;-64
